sensor_id;sensor_type;location;lat;lon;timestamp;P1;durP1;ratioP1;P2;durP2;ratioP2
32780;SDS011;19136;47.032;15.502;2024-02-26T00:02:06;12.27;;;4.97;;
32780;SDS011;19136;47.032;15.502;2024-02-26T00:04:32;11.85;;;5.10;;
32780;SDS011;19136;47.032;15.502;2024-02-26T00:06:57;10.63;;;4.55;;
32780;SDS011;19136;47.032;15.502;2024-02-26T00:09:23;10.60;;;4.82;;
32780;SDS011;19136;47.032;15.502;2024-02-26T00:11:48;12.02;;;4.55;;
32780;SDS011;19136;47.032;15.502;2024-02-26T00:14:14;10.77;;;4.60;;
32780;SDS011;19136;47.032;15.502;2024-02-26T00:16:40;16.95;;;5.10;;
32780;SDS011;19136;47.032;15.502;2024-02-26T00:19:05;13.52;;;5.22;;
32780;SDS011;19136;47.032;15.502;2024-02-26T00:21:30;12.70;;;4.55;;
32780;SDS011;19136;47.032;15.502;2024-02-26T00:23:56;11.52;;;4.93;;
32780;SDS011;19136;47.032;15.502;2024-02-26T00:26:21;19.55;;;4.80;;
32780;SDS011;19136;47.032;15.502;2024-02-26T00:28:47;12.48;;;4.47;;
32780;SDS011;19136;47.032;15.502;2024-02-26T00:31:12;11.52;;;4.72;;
32780;SDS011;19136;47.032;15.502;2024-02-26T00:33:40;18.10;;;4.75;;
32780;SDS011;19136;47.032;15.502;2024-02-26T00:36:06;14.15;;;4.93;;
32780;SDS011;19136;47.032;15.502;2024-02-26T00:38:32;14.50;;;4.95;;
32780;SDS011;19136;47.032;15.502;2024-02-26T00:40:58;11.70;;;4.90;;
32780;SDS011;19136;47.032;15.502;2024-02-26T00:43:24;9.07;;;4.40;;
32780;SDS011;19136;47.032;15.502;2024-02-26T00:45:50;13.18;;;4.13;;
32780;SDS011;19136;47.032;15.502;2024-02-26T00:48:22;18.45;;;5.25;;
32780;SDS011;19136;47.032;15.502;2024-02-26T00:50:51;12.70;;;4.43;;
32780;SDS011;19136;47.032;15.502;2024-02-26T00:53:17;9.98;;;3.90;;
32780;SDS011;19136;47.032;15.502;2024-02-26T00:55:45;13.73;;;4.80;;
32780;SDS011;19136;47.032;15.502;2024-02-26T00:58:12;13.43;;;4.40;;
32780;SDS011;19136;47.032;15.502;2024-02-26T01:00:40;10.45;;;4.10;;
32780;SDS011;19136;47.032;15.502;2024-02-26T01:03:09;11.52;;;4.10;;
32780;SDS011;19136;47.032;15.502;2024-02-26T01:05:36;9.40;;;3.80;;
32780;SDS011;19136;47.032;15.502;2024-02-26T01:08:02;12.57;;;4.10;;
32780;SDS011;19136;47.032;15.502;2024-02-26T01:10:28;11.25;;;4.95;;
32780;SDS011;19136;47.032;15.502;2024-02-26T01:12:54;14.75;;;5.80;;
32780;SDS011;19136;47.032;15.502;2024-02-26T01:15:20;13.55;;;6.03;;
32780;SDS011;19136;47.032;15.502;2024-02-26T01:17:50;16.10;;;5.30;;
32780;SDS011;19136;47.032;15.502;2024-02-26T01:20:16;16.85;;;5.53;;
32780;SDS011;19136;47.032;15.502;2024-02-26T01:22:43;11.45;;;4.00;;
32780;SDS011;19136;47.032;15.502;2024-02-26T01:25:09;15.75;;;4.28;;
32780;SDS011;19136;47.032;15.502;2024-02-26T01:27:39;13.38;;;4.45;;
32780;SDS011;19136;47.032;15.502;2024-02-26T01:30:09;9.90;;;4.20;;
32780;SDS011;19136;47.032;15.502;2024-02-26T01:32:36;10.60;;;4.43;;
32780;SDS011;19136;47.032;15.502;2024-02-26T01:35:02;10.45;;;4.32;;
32780;SDS011;19136;47.032;15.502;2024-02-26T01:37:37;13.40;;;3.75;;
32780;SDS011;19136;47.032;15.502;2024-02-26T01:40:07;9.35;;;4.57;;
32780;SDS011;19136;47.032;15.502;2024-02-26T01:42:33;9.65;;;3.85;;
32780;SDS011;19136;47.032;15.502;2024-02-26T01:44:59;11.07;;;4.05;;
32780;SDS011;19136;47.032;15.502;2024-02-26T01:47:26;11.07;;;4.43;;
32780;SDS011;19136;47.032;15.502;2024-02-26T01:49:53;9.02;;;3.60;;
32780;SDS011;19136;47.032;15.502;2024-02-26T01:52:21;11.68;;;4.10;;
32780;SDS011;19136;47.032;15.502;2024-02-26T01:54:48;13.30;;;4.28;;
32780;SDS011;19136;47.032;15.502;2024-02-26T01:57:14;8.48;;;3.88;;
32780;SDS011;19136;47.032;15.502;2024-02-26T01:59:42;13.13;;;3.65;;
32780;SDS011;19136;47.032;15.502;2024-02-26T02:02:09;12.02;;;4.53;;
32780;SDS011;19136;47.032;15.502;2024-02-26T02:04:37;7.70;;;4.38;;
32780;SDS011;19136;47.032;15.502;2024-02-26T02:07:03;8.55;;;4.10;;
32780;SDS011;19136;47.032;15.502;2024-02-26T02:09:30;10.70;;;3.90;;
32780;SDS011;19136;47.032;15.502;2024-02-26T02:11:55;6.13;;;3.65;;
32780;SDS011;19136;47.032;15.502;2024-02-26T02:14:30;9.32;;;4.15;;
32780;SDS011;19136;47.032;15.502;2024-02-26T02:16:59;14.05;;;5.32;;
32780;SDS011;19136;47.032;15.502;2024-02-26T02:19:24;6.20;;;3.65;;
32780;SDS011;19136;47.032;15.502;2024-02-26T02:21:51;11.50;;;4.30;;
32780;SDS011;19136;47.032;15.502;2024-02-26T02:24:19;9.70;;;3.80;;
32780;SDS011;19136;47.032;15.502;2024-02-26T02:26:45;7.80;;;4.25;;
32780;SDS011;19136;47.032;15.502;2024-02-26T02:29:12;11.27;;;3.80;;
32780;SDS011;19136;47.032;15.502;2024-02-26T02:31:40;10.13;;;3.85;;
32780;SDS011;19136;47.032;15.502;2024-02-26T02:34:09;8.63;;;4.07;;
32780;SDS011;19136;47.032;15.502;2024-02-26T02:36:47;11.68;;;4.22;;
32780;SDS011;19136;47.032;15.502;2024-02-26T02:39:15;9.90;;;4.28;;
32780;SDS011;19136;47.032;15.502;2024-02-26T02:41:41;8.63;;;3.28;;
32780;SDS011;19136;47.032;15.502;2024-02-26T02:44:11;10.38;;;3.97;;
32780;SDS011;19136;47.032;15.502;2024-02-26T02:46:37;15.98;;;4.57;;
32780;SDS011;19136;47.032;15.502;2024-02-26T02:49:04;10.95;;;3.70;;
32780;SDS011;19136;47.032;15.502;2024-02-26T02:51:29;7.03;;;3.60;;
32780;SDS011;19136;47.032;15.502;2024-02-26T02:53:56;6.40;;;3.40;;
32780;SDS011;19136;47.032;15.502;2024-02-26T02:56:22;19.05;;;4.30;;
32780;SDS011;19136;47.032;15.502;2024-02-26T02:58:50;9.77;;;3.88;;
32780;SDS011;19136;47.032;15.502;2024-02-26T03:01:16;12.27;;;3.72;;
32780;SDS011;19136;47.032;15.502;2024-02-26T03:03:42;10.98;;;4.07;;
32780;SDS011;19136;47.032;15.502;2024-02-26T03:06:08;12.25;;;5.07;;
32780;SDS011;19136;47.032;15.502;2024-02-26T03:08:34;15.45;;;5.90;;
32780;SDS011;19136;47.032;15.502;2024-02-26T03:11:03;11.30;;;4.18;;
32780;SDS011;19136;47.032;15.502;2024-02-26T03:13:30;15.48;;;5.25;;
32780;SDS011;19136;47.032;15.502;2024-02-26T03:15:56;20.90;;;6.35;;
32780;SDS011;19136;47.032;15.502;2024-02-26T03:18:23;14.27;;;5.93;;
32780;SDS011;19136;47.032;15.502;2024-02-26T03:20:49;13.00;;;5.38;;
32780;SDS011;19136;47.032;15.502;2024-02-26T03:23:16;13.15;;;4.57;;
32780;SDS011;19136;47.032;15.502;2024-02-26T03:25:43;11.30;;;4.30;;
32780;SDS011;19136;47.032;15.502;2024-02-26T03:28:09;9.18;;;4.22;;
32780;SDS011;19136;47.032;15.502;2024-02-26T03:30:35;9.02;;;3.40;;
32780;SDS011;19136;47.032;15.502;2024-02-26T03:33:01;10.23;;;3.80;;
32780;SDS011;19136;47.032;15.502;2024-02-26T03:35:33;10.18;;;4.50;;
32780;SDS011;19136;47.032;15.502;2024-02-26T03:38:00;10.48;;;3.00;;
32780;SDS011;19136;47.032;15.502;2024-02-26T03:40:26;14.90;;;3.90;;
32780;SDS011;19136;47.032;15.502;2024-02-26T03:42:53;8.82;;;3.38;;
32780;SDS011;19136;47.032;15.502;2024-02-26T03:45:21;10.93;;;3.88;;
32780;SDS011;19136;47.032;15.502;2024-02-26T03:47:50;12.05;;;3.90;;
32780;SDS011;19136;47.032;15.502;2024-02-26T03:50:16;12.02;;;3.60;;
32780;SDS011;19136;47.032;15.502;2024-02-26T03:52:43;6.47;;;3.47;;
32780;SDS011;19136;47.032;15.502;2024-02-26T03:55:09;9.15;;;3.70;;
32780;SDS011;19136;47.032;15.502;2024-02-26T03:57:36;11.80;;;3.80;;
32780;SDS011;19136;47.032;15.502;2024-02-26T04:00:03;12.50;;;4.30;;
32780;SDS011;19136;47.032;15.502;2024-02-26T04:02:36;7.70;;;2.97;;
32780;SDS011;19136;47.032;15.502;2024-02-26T04:05:01;14.15;;;4.60;;
32780;SDS011;19136;47.032;15.502;2024-02-26T04:07:27;12.50;;;3.92;;
32780;SDS011;19136;47.032;15.502;2024-02-26T04:09:53;10.98;;;4.03;;
32780;SDS011;19136;47.032;15.502;2024-02-26T04:12:20;5.43;;;2.90;;
32780;SDS011;19136;47.032;15.502;2024-02-26T04:14:46;12.02;;;3.10;;
32780;SDS011;19136;47.032;15.502;2024-02-26T04:17:12;8.90;;;3.53;;
32780;SDS011;19136;47.032;15.502;2024-02-26T04:19:38;9.38;;;3.72;;
32780;SDS011;19136;47.032;15.502;2024-02-26T04:22:07;8.57;;;3.22;;
32780;SDS011;19136;47.032;15.502;2024-02-26T04:24:35;5.97;;;2.67;;
32780;SDS011;19136;47.032;15.502;2024-02-26T04:27:02;9.60;;;2.92;;
32780;SDS011;19136;47.032;15.502;2024-02-26T04:29:28;7.35;;;2.67;;
32780;SDS011;19136;47.032;15.502;2024-02-26T04:31:55;8.38;;;3.45;;
32780;SDS011;19136;47.032;15.502;2024-02-26T04:34:22;19.30;;;3.58;;
32780;SDS011;19136;47.032;15.502;2024-02-26T04:36:50;8.50;;;3.72;;
32780;SDS011;19136;47.032;15.502;2024-02-26T04:39:16;11.18;;;3.28;;
32780;SDS011;19136;47.032;15.502;2024-02-26T04:41:42;12.30;;;3.67;;
32780;SDS011;19136;47.032;15.502;2024-02-26T04:44:08;7.43;;;2.97;;
32780;SDS011;19136;47.032;15.502;2024-02-26T04:46:33;10.25;;;3.35;;
32780;SDS011;19136;47.032;15.502;2024-02-26T04:49:33;8.35;;;3.08;;
32780;SDS011;19136;47.032;15.502;2024-02-26T04:51:59;9.82;;;3.97;;
32780;SDS011;19136;47.032;15.502;2024-02-26T04:54:25;7.50;;;3.42;;
32780;SDS011;19136;47.032;15.502;2024-02-26T04:56:52;21.40;;;6.63;;
32780;SDS011;19136;47.032;15.502;2024-02-26T04:59:18;24.08;;;8.35;;
32780;SDS011;19136;47.032;15.502;2024-02-26T05:01:45;19.92;;;7.82;;
32780;SDS011;19136;47.032;15.502;2024-02-26T05:04:12;13.57;;;5.65;;
32780;SDS011;19136;47.032;15.502;2024-02-26T05:06:38;9.20;;;3.90;;
32780;SDS011;19136;47.032;15.502;2024-02-26T05:09:03;10.75;;;4.55;;
32780;SDS011;19136;47.032;15.502;2024-02-26T05:11:30;10.20;;;3.75;;
32780;SDS011;19136;47.032;15.502;2024-02-26T05:13:57;6.45;;;2.95;;
32780;SDS011;19136;47.032;15.502;2024-02-26T05:16:23;9.95;;;3.58;;
32780;SDS011;19136;47.032;15.502;2024-02-26T05:18:53;11.23;;;3.45;;
32780;SDS011;19136;47.032;15.502;2024-02-26T05:21:19;14.10;;;3.42;;
32780;SDS011;19136;47.032;15.502;2024-02-26T05:23:44;7.55;;;3.25;;
32780;SDS011;19136;47.032;15.502;2024-02-26T05:26:11;12.93;;;3.03;;
32780;SDS011;19136;47.032;15.502;2024-02-26T05:28:38;19.02;;;4.60;;
32780;SDS011;19136;47.032;15.502;2024-02-26T05:31:05;8.70;;;3.70;;
32780;SDS011;19136;47.032;15.502;2024-02-26T05:33:33;7.10;;;3.88;;
32780;SDS011;19136;47.032;15.502;2024-02-26T05:35:59;11.93;;;3.58;;
32780;SDS011;19136;47.032;15.502;2024-02-26T05:38:29;10.35;;;3.67;;
32780;SDS011;19136;47.032;15.502;2024-02-26T05:40:55;12.23;;;4.18;;
32780;SDS011;19136;47.032;15.502;2024-02-26T05:43:20;12.25;;;3.67;;
32780;SDS011;19136;47.032;15.502;2024-02-26T05:46:00;9.38;;;3.65;;
32780;SDS011;19136;47.032;15.502;2024-02-26T05:48:26;12.85;;;3.63;;
32780;SDS011;19136;47.032;15.502;2024-02-26T05:50:52;38.72;;;5.50;;
32780;SDS011;19136;47.032;15.502;2024-02-26T05:53:17;36.88;;;4.57;;
32780;SDS011;19136;47.032;15.502;2024-02-26T05:55:48;15.85;;;3.17;;
32780;SDS011;19136;47.032;15.502;2024-02-26T05:58:13;18.80;;;4.18;;
32780;SDS011;19136;47.032;15.502;2024-02-26T06:00:40;12.55;;;3.17;;
32780;SDS011;19136;47.032;15.502;2024-02-26T06:03:06;20.95;;;3.83;;
32780;SDS011;19136;47.032;15.502;2024-02-26T06:05:35;17.48;;;3.65;;
32780;SDS011;19136;47.032;15.502;2024-02-26T06:08:03;10.50;;;3.40;;
32780;SDS011;19136;47.032;15.502;2024-02-26T06:10:32;14.00;;;3.60;;
32780;SDS011;19136;47.032;15.502;2024-02-26T06:13:04;14.88;;;3.58;;
32780;SDS011;19136;47.032;15.502;2024-02-26T06:15:32;14.27;;;3.92;;
32780;SDS011;19136;47.032;15.502;2024-02-26T06:17:58;17.13;;;4.90;;
32780;SDS011;19136;47.032;15.502;2024-02-26T06:20:26;9.48;;;3.58;;
32780;SDS011;19136;47.032;15.502;2024-02-26T06:22:52;19.23;;;4.00;;
32780;SDS011;19136;47.032;15.502;2024-02-26T06:25:18;13.55;;;4.13;;
32780;SDS011;19136;47.032;15.502;2024-02-26T06:27:43;7.80;;;4.03;;
32780;SDS011;19136;47.032;15.502;2024-02-26T06:30:13;10.18;;;3.97;;
32780;SDS011;19136;47.032;15.502;2024-02-26T06:32:44;13.45;;;3.85;;
32780;SDS011;19136;47.032;15.502;2024-02-26T06:35:13;10.25;;;3.88;;
32780;SDS011;19136;47.032;15.502;2024-02-26T06:37:40;9.57;;;4.10;;
32780;SDS011;19136;47.032;15.502;2024-02-26T06:40:06;12.55;;;4.10;;
32780;SDS011;19136;47.032;15.502;2024-02-26T06:42:33;15.10;;;4.10;;
32780;SDS011;19136;47.032;15.502;2024-02-26T06:44:59;9.77;;;4.50;;
32780;SDS011;19136;47.032;15.502;2024-02-26T06:47:27;11.57;;;4.35;;
32780;SDS011;19136;47.032;15.502;2024-02-26T06:49:53;21.63;;;4.20;;
32780;SDS011;19136;47.032;15.502;2024-02-26T06:52:27;9.23;;;4.03;;
32780;SDS011;19136;47.032;15.502;2024-02-26T06:54:53;15.20;;;4.00;;
32780;SDS011;19136;47.032;15.502;2024-02-26T06:57:28;12.52;;;4.22;;
32780;SDS011;19136;47.032;15.502;2024-02-26T06:59:59;8.95;;;3.70;;
32780;SDS011;19136;47.032;15.502;2024-02-26T07:02:30;19.33;;;4.25;;
32780;SDS011;19136;47.032;15.502;2024-02-26T07:04:59;21.30;;;4.10;;
32780;SDS011;19136;47.032;15.502;2024-02-26T07:07:35;29.80;;;5.45;;
32780;SDS011;19136;47.032;15.502;2024-02-26T07:10:04;14.48;;;4.10;;
32780;SDS011;19136;47.032;15.502;2024-02-26T07:12:31;23.98;;;4.85;;
32780;SDS011;19136;47.032;15.502;2024-02-26T07:15:07;28.35;;;4.28;;
32780;SDS011;19136;47.032;15.502;2024-02-26T07:17:47;24.40;;;4.50;;
32780;SDS011;19136;47.032;15.502;2024-02-26T07:20:15;41.28;;;5.32;;
32780;SDS011;19136;47.032;15.502;2024-02-26T07:22:44;34.95;;;4.88;;
32780;SDS011;19136;47.032;15.502;2024-02-26T07:25:12;18.63;;;4.00;;
32780;SDS011;19136;47.032;15.502;2024-02-26T07:27:39;23.08;;;3.60;;
32780;SDS011;19136;47.032;15.502;2024-02-26T07:30:06;13.13;;;3.70;;
32780;SDS011;19136;47.032;15.502;2024-02-26T07:32:38;16.10;;;3.75;;
32780;SDS011;19136;47.032;15.502;2024-02-26T07:35:06;19.05;;;3.83;;
32780;SDS011;19136;47.032;15.502;2024-02-26T07:37:33;27.58;;;3.70;;
32780;SDS011;19136;47.032;15.502;2024-02-26T07:40:00;17.92;;;3.85;;
32780;SDS011;19136;47.032;15.502;2024-02-26T07:42:28;10.50;;;3.45;;
32780;SDS011;19136;47.032;15.502;2024-02-26T07:44:55;8.77;;;3.55;;
32780;SDS011;19136;47.032;15.502;2024-02-26T07:47:21;12.48;;;3.95;;
32780;SDS011;19136;47.032;15.502;2024-02-26T07:49:47;14.32;;;4.88;;
32780;SDS011;19136;47.032;15.502;2024-02-26T07:52:13;13.95;;;3.50;;
32780;SDS011;19136;47.032;15.502;2024-02-26T07:54:39;22.77;;;4.13;;
32780;SDS011;19136;47.032;15.502;2024-02-26T07:57:05;8.27;;;3.88;;
32780;SDS011;19136;47.032;15.502;2024-02-26T07:59:32;7.57;;;3.60;;
32780;SDS011;19136;47.032;15.502;2024-02-26T08:01:58;13.23;;;3.67;;
32780;SDS011;19136;47.032;15.502;2024-02-26T08:04:23;16.67;;;3.70;;
32780;SDS011;19136;47.032;15.502;2024-02-26T08:06:53;18.17;;;4.13;;
32780;SDS011;19136;47.032;15.502;2024-02-26T08:09:20;19.58;;;4.22;;
32780;SDS011;19136;47.032;15.502;2024-02-26T08:11:45;12.07;;;3.35;;
32780;SDS011;19136;47.032;15.502;2024-02-26T08:14:13;17.70;;;4.35;;
32780;SDS011;19136;47.032;15.502;2024-02-26T08:16:40;23.10;;;3.90;;
32780;SDS011;19136;47.032;15.502;2024-02-26T08:19:07;9.50;;;3.67;;
32780;SDS011;19136;47.032;15.502;2024-02-26T08:21:33;19.90;;;3.70;;
32780;SDS011;19136;47.032;15.502;2024-02-26T08:23:58;10.80;;;3.25;;
32780;SDS011;19136;47.032;15.502;2024-02-26T08:26:24;9.18;;;2.85;;
32780;SDS011;19136;47.032;15.502;2024-02-26T08:28:51;18.83;;;3.38;;
32780;SDS011;19136;47.032;15.502;2024-02-26T08:31:17;11.15;;;3.10;;
32780;SDS011;19136;47.032;15.502;2024-02-26T08:33:44;12.40;;;3.63;;
32780;SDS011;19136;47.032;15.502;2024-02-26T08:36:11;14.02;;;4.22;;
32780;SDS011;19136;47.032;15.502;2024-02-26T08:38:39;16.95;;;4.00;;
32780;SDS011;19136;47.032;15.502;2024-02-26T08:41:08;15.82;;;4.30;;
32780;SDS011;19136;47.032;15.502;2024-02-26T08:43:34;11.75;;;4.30;;
32780;SDS011;19136;47.032;15.502;2024-02-26T08:46:00;8.00;;;3.72;;
32780;SDS011;19136;47.032;15.502;2024-02-26T08:48:26;15.73;;;3.83;;
32780;SDS011;19136;47.032;15.502;2024-02-26T08:50:52;7.70;;;3.03;;
32780;SDS011;19136;47.032;15.502;2024-02-26T08:53:21;8.82;;;3.33;;
32780;SDS011;19136;47.032;15.502;2024-02-26T08:55:46;10.65;;;3.78;;
32780;SDS011;19136;47.032;15.502;2024-02-26T08:58:12;15.63;;;3.28;;
32780;SDS011;19136;47.032;15.502;2024-02-26T09:00:37;6.55;;;2.92;;
32780;SDS011;19136;47.032;15.502;2024-02-26T09:03:05;8.07;;;2.13;;
32780;SDS011;19136;47.032;15.502;2024-02-26T09:05:31;4.25;;;2.05;;
32780;SDS011;19136;47.032;15.502;2024-02-26T09:07:58;12.80;;;3.10;;
32780;SDS011;19136;47.032;15.502;2024-02-26T09:10:26;5.85;;;2.72;;
32780;SDS011;19136;47.032;15.502;2024-02-26T09:12:52;9.90;;;2.65;;
32780;SDS011;19136;47.032;15.502;2024-02-26T09:15:22;10.13;;;2.90;;
32780;SDS011;19136;47.032;15.502;2024-02-26T09:17:48;6.78;;;2.50;;
32780;SDS011;19136;47.032;15.502;2024-02-26T09:20:17;8.93;;;2.90;;
32780;SDS011;19136;47.032;15.502;2024-02-26T09:22:48;8.25;;;2.85;;
32780;SDS011;19136;47.032;15.502;2024-02-26T09:25:15;6.70;;;2.38;;
32780;SDS011;19136;47.032;15.502;2024-02-26T09:27:44;6.82;;;2.33;;
32780;SDS011;19136;47.032;15.502;2024-02-26T09:30:10;5.55;;;2.20;;
32780;SDS011;19136;47.032;15.502;2024-02-26T09:32:45;7.38;;;2.63;;
32780;SDS011;19136;47.032;15.502;2024-02-26T09:35:14;6.32;;;2.60;;
32780;SDS011;19136;47.032;15.502;2024-02-26T09:37:40;7.32;;;2.90;;
32780;SDS011;19136;47.032;15.502;2024-02-26T09:40:10;20.15;;;3.05;;
32780;SDS011;19136;47.032;15.502;2024-02-26T09:42:44;9.20;;;2.70;;
32780;SDS011;19136;47.032;15.502;2024-02-26T09:45:17;11.57;;;2.85;;
32780;SDS011;19136;47.032;15.502;2024-02-26T09:50:12;6.05;;;2.03;;
32780;SDS011;19136;47.032;15.502;2024-02-26T09:52:39;7.90;;;2.30;;
32780;SDS011;19136;47.032;15.502;2024-02-26T09:55:08;8.00;;;2.10;;
32780;SDS011;19136;47.032;15.502;2024-02-26T09:57:37;7.88;;;2.28;;
32780;SDS011;19136;47.032;15.502;2024-02-26T10:00:04;3.40;;;1.70;;
32780;SDS011;19136;47.032;15.502;2024-02-26T10:02:32;5.38;;;1.70;;
32780;SDS011;19136;47.032;15.502;2024-02-26T10:05:01;4.35;;;1.80;;
32780;SDS011;19136;47.032;15.502;2024-02-26T10:07:30;5.28;;;1.98;;
32780;SDS011;19136;47.032;15.502;2024-02-26T10:10:01;5.75;;;1.67;;
32780;SDS011;19136;47.032;15.502;2024-02-26T10:12:26;6.45;;;1.80;;
32780;SDS011;19136;47.032;15.502;2024-02-26T10:14:54;14.02;;;2.00;;
32780;SDS011;19136;47.032;15.502;2024-02-26T10:17:20;4.28;;;1.50;;
32780;SDS011;19136;47.032;15.502;2024-02-26T10:19:47;4.55;;;1.35;;
32780;SDS011;19136;47.032;15.502;2024-02-26T10:22:12;2.95;;;1.40;;
32780;SDS011;19136;47.032;15.502;2024-02-26T10:24:38;2.95;;;1.10;;
32780;SDS011;19136;47.032;15.502;2024-02-26T10:27:03;6.05;;;1.23;;
32780;SDS011;19136;47.032;15.502;2024-02-26T10:29:30;5.75;;;1.67;;
32780;SDS011;19136;47.032;15.502;2024-02-26T10:31:56;4.65;;;1.10;;
32780;SDS011;19136;47.032;15.502;2024-02-26T10:34:22;5.50;;;1.42;;
32780;SDS011;19136;47.032;15.502;2024-02-26T10:36:49;6.30;;;1.70;;
32780;SDS011;19136;47.032;15.502;2024-02-26T10:39:15;4.05;;;1.67;;
32780;SDS011;19136;47.032;15.502;2024-02-26T10:41:43;5.40;;;1.55;;
32780;SDS011;19136;47.032;15.502;2024-02-26T10:44:09;4.65;;;1.90;;
32780;SDS011;19136;47.032;15.502;2024-02-26T10:46:42;6.88;;;1.65;;
32780;SDS011;19136;47.032;15.502;2024-02-26T10:49:13;8.10;;;1.63;;
32780;SDS011;19136;47.032;15.502;2024-02-26T10:51:39;4.32;;;1.92;;
32780;SDS011;19136;47.032;15.502;2024-02-26T10:54:07;9.10;;;1.90;;
32780;SDS011;19136;47.032;15.502;2024-02-26T10:56:36;6.10;;;1.65;;
32780;SDS011;19136;47.032;15.502;2024-02-26T10:59:05;7.43;;;2.20;;
32780;SDS011;19136;47.032;15.502;2024-02-26T11:01:34;4.32;;;1.50;;
32780;SDS011;19136;47.032;15.502;2024-02-26T11:04:02;4.80;;;1.60;;
32780;SDS011;19136;47.032;15.502;2024-02-26T11:06:28;4.85;;;1.80;;
32780;SDS011;19136;47.032;15.502;2024-02-26T11:08:54;9.02;;;1.60;;
32780;SDS011;19136;47.032;15.502;2024-02-26T11:11:24;4.10;;;1.52;;
32780;SDS011;19136;47.032;15.502;2024-02-26T11:13:53;4.70;;;1.75;;
32780;SDS011;19136;47.032;15.502;2024-02-26T11:16:22;4.20;;;1.52;;
32780;SDS011;19136;47.032;15.502;2024-02-26T11:18:49;8.75;;;1.70;;
32780;SDS011;19136;47.032;15.502;2024-02-26T11:21:18;10.13;;;2.00;;
32780;SDS011;19136;47.032;15.502;2024-02-26T11:24:05;4.82;;;1.98;;
32780;SDS011;19136;47.032;15.502;2024-02-26T11:26:31;18.20;;;2.22;;
32780;SDS011;19136;47.032;15.502;2024-02-26T11:28:56;3.55;;;1.60;;
32780;SDS011;19136;47.032;15.502;2024-02-26T11:31:28;7.18;;;1.85;;
32780;SDS011;19136;47.032;15.502;2024-02-26T11:33:54;5.03;;;1.30;;
32780;SDS011;19136;47.032;15.502;2024-02-26T11:36:21;4.72;;;1.70;;
32780;SDS011;19136;47.032;15.502;2024-02-26T11:38:52;6.20;;;1.67;;
32780;SDS011;19136;47.032;15.502;2024-02-26T11:41:18;8.05;;;1.70;;
32780;SDS011;19136;47.032;15.502;2024-02-26T11:43:52;8.43;;;2.03;;
32780;SDS011;19136;47.032;15.502;2024-02-26T11:46:51;6.60;;;1.80;;
32780;SDS011;19136;47.032;15.502;2024-02-26T11:51:55;4.55;;;1.50;;
32780;SDS011;19136;47.032;15.502;2024-02-26T11:59:51;4.72;;;1.52;;
32780;SDS011;19136;47.032;15.502;2024-02-26T12:05:02;4.07;;;1.60;;
32780;SDS011;19136;47.032;15.502;2024-02-26T12:07:28;4.55;;;1.90;;
32780;SDS011;19136;47.032;15.502;2024-02-26T12:10:12;4.07;;;2.08;;
32780;SDS011;19136;47.032;15.502;2024-02-26T12:12:39;4.05;;;1.63;;
32780;SDS011;19136;47.032;15.502;2024-02-26T12:15:05;4.25;;;1.70;;
32780;SDS011;19136;47.032;15.502;2024-02-26T12:17:33;5.53;;;1.50;;
32780;SDS011;19136;47.032;15.502;2024-02-26T12:20:11;5.38;;;1.80;;
32780;SDS011;19136;47.032;15.502;2024-02-26T12:22:39;12.30;;;2.25;;
32780;SDS011;19136;47.032;15.502;2024-02-26T12:25:11;9.38;;;2.00;;
32780;SDS011;19136;47.032;15.502;2024-02-26T12:27:39;4.80;;;1.73;;
32780;SDS011;19136;47.032;15.502;2024-02-26T12:30:06;5.35;;;1.90;;
32780;SDS011;19136;47.032;15.502;2024-02-26T12:32:32;6.07;;;1.77;;
32780;SDS011;19136;47.032;15.502;2024-02-26T12:34:58;6.90;;;1.55;;
32780;SDS011;19136;47.032;15.502;2024-02-26T12:37:27;3.33;;;1.52;;
32780;SDS011;19136;47.032;15.502;2024-02-26T12:39:53;4.53;;;1.77;;
32780;SDS011;19136;47.032;15.502;2024-02-26T12:42:20;5.07;;;1.60;;
32780;SDS011;19136;47.032;15.502;2024-02-26T12:44:46;2.92;;;1.45;;
32780;SDS011;19136;47.032;15.502;2024-02-26T12:47:12;4.82;;;1.50;;
32780;SDS011;19136;47.032;15.502;2024-02-26T12:49:48;2.50;;;1.30;;
32780;SDS011;19136;47.032;15.502;2024-02-26T12:52:14;9.10;;;1.95;;
32780;SDS011;19136;47.032;15.502;2024-02-26T12:54:42;3.38;;;1.55;;
32780;SDS011;19136;47.032;15.502;2024-02-26T12:57:09;5.97;;;1.30;;
32780;SDS011;19136;47.032;15.502;2024-02-26T12:59:35;4.90;;;1.60;;
32780;SDS011;19136;47.032;15.502;2024-02-26T13:02:02;4.13;;;1.58;;
32780;SDS011;19136;47.032;15.502;2024-02-26T13:04:29;2.63;;;1.23;;
32780;SDS011;19136;47.032;15.502;2024-02-26T13:06:55;5.55;;;1.55;;
32780;SDS011;19136;47.032;15.502;2024-02-26T13:09:26;4.15;;;1.52;;
32780;SDS011;19136;47.032;15.502;2024-02-26T13:11:56;4.32;;;1.10;;
32780;SDS011;19136;47.032;15.502;2024-02-26T13:14:25;2.45;;;0.93;;
32780;SDS011;19136;47.032;15.502;2024-02-26T13:16:55;2.92;;;1.02;;
32780;SDS011;19136;47.032;15.502;2024-02-26T13:19:22;5.22;;;1.00;;
32780;SDS011;19136;47.032;15.502;2024-02-26T13:21:48;3.63;;;1.17;;
32780;SDS011;19136;47.032;15.502;2024-02-26T13:24:14;6.43;;;0.93;;
32780;SDS011;19136;47.032;15.502;2024-02-26T13:26:46;8.68;;;1.33;;
32780;SDS011;19136;47.032;15.502;2024-02-26T13:29:26;14.15;;;1.77;;
32780;SDS011;19136;47.032;15.502;2024-02-26T13:31:59;6.75;;;0.93;;
32780;SDS011;19136;47.032;15.502;2024-02-26T13:34:25;8.27;;;1.73;;
32780;SDS011;19136;47.032;15.502;2024-02-26T13:36:52;10.75;;;1.40;;
32780;SDS011;19136;47.032;15.502;2024-02-26T13:39:23;9.75;;;1.90;;
32780;SDS011;19136;47.032;15.502;2024-02-26T13:41:49;2.92;;;1.00;;
32780;SDS011;19136;47.032;15.502;2024-02-26T13:44:15;3.75;;;1.00;;
32780;SDS011;19136;47.032;15.502;2024-02-26T13:46:41;6.50;;;1.15;;
32780;SDS011;19136;47.032;15.502;2024-02-26T13:49:07;4.93;;;0.80;;
32780;SDS011;19136;47.032;15.502;2024-02-26T13:51:34;1.80;;;0.70;;
32780;SDS011;19136;47.032;15.502;2024-02-26T13:54:01;2.08;;;0.93;;
32780;SDS011;19136;47.032;15.502;2024-02-26T13:56:26;8.68;;;1.48;;
32780;SDS011;19136;47.032;15.502;2024-02-26T13:58:52;3.03;;;1.00;;
32780;SDS011;19136;47.032;15.502;2024-02-26T14:01:18;4.35;;;1.10;;
32780;SDS011;19136;47.032;15.502;2024-02-26T14:03:44;4.60;;;1.08;;
32780;SDS011;19136;47.032;15.502;2024-02-26T14:06:10;4.50;;;1.25;;
32780;SDS011;19136;47.032;15.502;2024-02-26T14:08:35;1.63;;;0.93;;
32780;SDS011;19136;47.032;15.502;2024-02-26T14:11:01;5.43;;;1.30;;
32780;SDS011;19136;47.032;15.502;2024-02-26T14:14:00;2.65;;;0.70;;
32780;SDS011;19136;47.032;15.502;2024-02-26T14:16:25;2.88;;;0.82;;
32780;SDS011;19136;47.032;15.502;2024-02-26T14:18:53;1.92;;;0.73;;
32780;SDS011;19136;47.032;15.502;2024-02-26T14:21:22;3.28;;;1.08;;
32780;SDS011;19136;47.032;15.502;2024-02-26T14:23:48;3.30;;;1.35;;
32780;SDS011;19136;47.032;15.502;2024-02-26T14:26:14;5.95;;;1.10;;
32780;SDS011;19136;47.032;15.502;2024-02-26T14:28:43;3.28;;;0.82;;
32780;SDS011;19136;47.032;15.502;2024-02-26T14:31:08;2.05;;;0.80;;
32780;SDS011;19136;47.032;15.502;2024-02-26T14:33:37;3.95;;;0.85;;
32780;SDS011;19136;47.032;15.502;2024-02-26T14:36:03;2.65;;;1.33;;
32780;SDS011;19136;47.032;15.502;2024-02-26T14:38:28;4.95;;;1.10;;
32780;SDS011;19136;47.032;15.502;2024-02-26T14:40:54;4.10;;;1.10;;
32780;SDS011;19136;47.032;15.502;2024-02-26T14:43:20;6.53;;;1.08;;
32780;SDS011;19136;47.032;15.502;2024-02-26T14:45:49;8.15;;;1.10;;